createdAt,value
2022-11-22T00:00:56.302Z,2.10
2022-11-22T00:04:01.463Z,2.40
2022-11-22T00:07:05.247Z,2.47
2022-11-22T00:10:12.080Z,2.40
2022-11-22T00:13:15.930Z,2.23
2022-11-22T00:16:19.613Z,2.37
2022-11-22T00:19:24.790Z,2.80
2022-11-22T00:22:28.440Z,2.03
2022-11-22T00:25:31.964Z,2.30
2022-11-22T00:28:35.670Z,2.33
2022-11-22T00:31:39.450Z,2.10
2022-11-22T00:34:44.631Z,2.63
2022-11-22T00:37:48.609Z,2.70
2022-11-22T00:40:52.203Z,2.33
2022-11-22T00:43:55.754Z,2.67
2022-11-22T00:46:59.470Z,2.50
2022-11-22T00:50:05.471Z,2.43
2022-11-22T00:53:09.340Z,2.60
2022-11-22T00:56:13.039Z,2.33
2022-11-22T00:59:16.967Z,2.87
2022-11-22T01:02:20.671Z,2.47
2022-11-22T01:05:25.781Z,2.77
2022-11-22T01:08:29.470Z,2.73
2022-11-22T01:11:33.179Z,2.83
2022-11-22T01:14:36.840Z,2.73
2022-11-22T01:17:40.640Z,2.70
2022-11-22T01:20:45.749Z,2.63
2022-11-22T01:23:49.397Z,2.27
2022-11-22T01:26:53.066Z,2.50
2022-11-22T01:29:56.552Z,2.33
2022-11-22T01:33:00.168Z,2.60
2022-11-22T01:36:05.590Z,2.40
2022-11-22T01:39:09.322Z,3.03
2022-11-22T01:42:13.629Z,2.50
2022-11-22T01:45:42.802Z,2.90
2022-11-22T01:48:52.674Z,3.20
2022-11-22T01:52:01.261Z,3.20
2022-11-22T01:55:09.972Z,2.90
2022-11-22T01:58:15.395Z,2.53
2022-11-22T02:01:19.285Z,2.93
2022-11-22T02:04:25.759Z,3.07
2022-11-22T02:07:36.851Z,3.10
2022-11-22T02:10:45.951Z,2.60
2022-11-22T02:13:51.606Z,2.70
2022-11-22T02:16:55.655Z,2.63
2022-11-22T02:19:59.200Z,2.60
2022-11-22T02:23:11.861Z,2.73
2022-11-22T02:26:17.304Z,2.40
2022-11-22T02:29:21.974Z,3.00
2022-11-22T02:32:25.724Z,3.10
2022-11-22T02:35:31.352Z,2.90
2022-11-22T02:38:36.879Z,3.17
2022-11-22T02:41:42.106Z,3.30
2022-11-22T02:44:45.638Z,3.47
2022-11-22T02:47:49.367Z,3.20
2022-11-22T02:50:52.931Z,3.10
2022-11-22T02:53:57.100Z,3.17
2022-11-22T02:57:03.817Z,3.20
2022-11-22T03:00:08.961Z,2.90
2022-11-22T03:03:12.676Z,3.17
2022-11-22T03:06:16.236Z,2.93
2022-11-22T03:09:20.318Z,2.80
2022-11-22T03:12:25.440Z,2.93
2022-11-22T03:15:29.350Z,3.50
2022-11-22T03:18:34.903Z,3.50
2022-11-22T03:21:38.978Z,2.87
2022-11-22T03:24:42.821Z,3.27
2022-11-22T03:27:47.960Z,3.20
2022-11-22T03:30:51.492Z,3.60
2022-11-22T03:33:54.976Z,3.10
2022-11-22T03:36:58.440Z,3.40
2022-11-22T03:40:01.931Z,3.50
2022-11-22T03:43:06.867Z,3.57
2022-11-22T03:46:16.103Z,3.60
2022-11-22T03:49:19.842Z,3.23
2022-11-22T03:52:23.518Z,3.90
2022-11-22T03:55:27.107Z,3.60
2022-11-22T03:58:32.297Z,3.50
2022-11-22T04:01:36.100Z,3.40
2022-11-22T04:04:39.738Z,3.80
2022-11-22T04:07:43.754Z,3.60
2022-11-22T04:10:47.390Z,4.07
2022-11-22T04:14:06.171Z,3.67
2022-11-22T04:17:09.794Z,3.70
2022-11-22T04:20:30.099Z,3.20
2022-11-22T04:23:34.547Z,3.33
2022-11-22T04:26:37.459Z,2.83
2022-11-22T04:29:42.470Z,3.10
2022-11-22T04:32:47.717Z,2.93
2022-11-22T04:35:51.644Z,3.00
2022-11-22T04:38:55.168Z,2.87
2022-11-22T04:42:12.983Z,2.80
2022-11-22T04:45:18.381Z,2.90
2022-11-22T04:48:21.921Z,3.00
2022-11-22T04:51:43.296Z,3.50
2022-11-22T04:54:46.813Z,2.73
2022-11-22T04:57:54.401Z,3.10
2022-11-22T05:01:02.972Z,3.60
2022-11-22T05:04:06.978Z,3.30
2022-11-22T05:07:10.747Z,3.27
2022-11-22T05:10:14.473Z,3.57
2022-11-22T05:13:18.610Z,3.70
2022-11-22T05:16:23.601Z,3.40
2022-11-22T05:19:27.463Z,3.50
2022-11-22T05:22:44.882Z,3.23
2022-11-22T05:25:48.398Z,3.93
2022-11-22T05:28:52.381Z,3.60
2022-11-22T05:31:57.381Z,3.90
2022-11-22T05:35:01.250Z,3.10
2022-11-22T05:38:05.192Z,3.47
2022-11-22T05:41:10.710Z,3.70
2022-11-22T05:44:14.480Z,3.60
2022-11-22T05:47:19.512Z,3.80
2022-11-22T05:50:23.350Z,3.87
2022-11-22T05:53:30.770Z,4.50
2022-11-22T05:56:34.523Z,4.00
2022-11-22T05:59:43.768Z,3.80
2022-11-22T06:02:49.413Z,4.40
2022-11-22T06:05:53.550Z,3.87
2022-11-22T06:08:57.351Z,3.80
2022-11-22T06:12:01.042Z,4.37
2022-11-22T06:15:04.800Z,4.47
2022-11-22T06:18:09.910Z,4.30
2022-11-22T06:21:15.211Z,3.80
2022-11-22T06:24:18.922Z,4.20
2022-11-22T06:27:22.631Z,4.37
2022-11-22T06:30:26.439Z,4.80
2022-11-22T06:33:31.741Z,5.00
2022-11-22T06:36:36.414Z,4.23
2022-11-22T06:39:40.071Z,4.47
2022-11-22T06:42:43.821Z,4.50
2022-11-22T06:45:47.532Z,5.10
2022-11-22T06:48:53.043Z,4.50
2022-11-22T06:51:56.742Z,4.23
2022-11-22T06:55:00.481Z,3.83
2022-11-22T06:58:04.300Z,4.10
2022-11-22T07:01:09.687Z,4.00
2022-11-22T07:04:14.991Z,4.20
2022-11-22T07:07:18.762Z,4.30
2022-11-22T07:10:22.501Z,4.00
2022-11-22T07:13:26.241Z,5.00
2022-11-22T07:16:30.160Z,4.50
2022-11-22T07:19:35.371Z,5.50
2022-11-22T07:22:39.110Z,6.00
2022-11-22T07:25:46.201Z,5.80
2022-11-22T07:28:50.460Z,4.93
2022-11-22T07:31:54.215Z,5.33
2022-11-22T07:34:59.291Z,4.93
2022-11-22T07:38:03.239Z,5.90
2022-11-22T07:41:08.323Z,5.17
2022-11-22T07:44:11.970Z,4.83
2022-11-22T07:47:21.471Z,4.47
2022-11-22T07:50:28.116Z,4.80
2022-11-22T07:53:32.080Z,4.50
2022-11-22T07:56:36.290Z,4.20
2022-11-22T07:59:40.070Z,4.37
2022-11-22T08:02:43.772Z,4.70
2022-11-22T08:05:48.940Z,4.53
2022-11-22T08:08:57.078Z,4.30
2022-11-22T08:12:04.520Z,4.20
2022-11-22T08:15:09.433Z,4.80
2022-11-22T08:18:13.220Z,4.47
2022-11-22T08:21:20.191Z,5.07
2022-11-22T08:24:24.030Z,4.17
2022-11-22T08:27:27.806Z,3.80
2022-11-22T08:30:31.460Z,3.70
2022-11-22T08:33:35.240Z,4.50
2022-11-22T08:36:40.509Z,4.53
2022-11-22T08:39:44.280Z,4.07
2022-11-22T08:42:47.954Z,2.90
2022-11-22T08:45:56.432Z,2.20
2022-11-22T08:49:00.098Z,2.60
2022-11-22T08:52:05.243Z,2.67
2022-11-22T08:55:10.220Z,3.27
2022-11-22T08:58:13.971Z,3.33
2022-11-22T09:01:19.461Z,2.90
2022-11-22T09:04:23.339Z,3.93
2022-11-22T09:10:53.279Z,3.17
2022-11-22T09:13:57.641Z,3.27
2022-11-22T09:17:01.470Z,3.50
2022-11-22T09:20:06.180Z,2.93
2022-11-22T09:23:11.387Z,3.60
2022-11-22T09:26:16.941Z,3.40
2022-11-22T09:29:20.637Z,3.10
2022-11-22T09:32:26.245Z,3.50
2022-11-22T09:35:33.160Z,4.67
2022-11-22T09:38:39.221Z,3.63
2022-11-22T09:42:05.989Z,3.83
2022-11-22T09:45:40.239Z,3.57
2022-11-22T09:49:03.279Z,3.70
2022-11-22T09:52:11.429Z,4.77
2022-11-22T09:55:25.242Z,3.37
2022-11-22T09:58:33.639Z,2.93
2022-11-22T10:01:41.843Z,3.10
2022-11-22T10:04:51.299Z,3.87
2022-11-22T10:08:03.019Z,3.07
2022-11-22T10:11:30.912Z,2.97
2022-11-22T10:14:47.390Z,4.30
2022-11-22T10:17:55.994Z,4.00
2022-11-22T10:20:59.904Z,3.57
2022-11-22T10:24:04.019Z,4.53
2022-11-22T10:27:14.880Z,3.80
2022-11-22T10:30:21.199Z,3.97
2022-11-22T10:33:30.962Z,3.97
2022-11-22T10:36:43.525Z,4.07
2022-11-22T10:40:02.530Z,3.73
2022-11-22T10:43:31.841Z,4.10
2022-11-22T10:46:46.300Z,4.10
2022-11-22T10:49:59.191Z,4.23
2022-11-22T10:53:12.560Z,4.93
2022-11-22T10:56:22.973Z,6.40
2022-11-22T10:59:46.749Z,6.00
2022-11-22T11:03:17.601Z,5.87
2022-11-22T11:06:43.695Z,6.70
2022-11-22T11:13:24.992Z,5.17
2022-11-22T11:16:33.814Z,5.23
2022-11-22T11:19:40.500Z,5.60
2022-11-22T11:23:13.134Z,5.70
2022-11-22T11:26:23.850Z,5.17
2022-11-22T11:29:41.970Z,5.83
2022-11-22T11:32:55.770Z,4.70
2022-11-22T11:36:05.352Z,5.73
2022-11-22T11:39:21.440Z,4.50
2022-11-22T11:42:30.843Z,4.27
2022-11-22T11:45:34.611Z,4.20
2022-11-22T11:48:41.461Z,3.87
2022-11-22T11:51:46.551Z,3.83
2022-11-22T11:54:53.410Z,3.30
2022-11-22T11:57:57.200Z,3.57
2022-11-22T12:01:00.939Z,3.57
2022-11-22T12:04:08.090Z,3.83
2022-11-22T12:07:20.364Z,4.50
2022-11-22T12:10:40.210Z,4.37
2022-11-22T12:14:12.827Z,4.17
2022-11-22T12:17:18.526Z,4.03
2022-11-22T12:20:28.170Z,4.43
2022-11-22T12:23:40.393Z,4.53
2022-11-22T12:26:44.599Z,3.83
2022-11-22T12:29:48.472Z,4.57
2022-11-22T12:32:59.921Z,3.97
2022-11-22T12:36:10.781Z,3.57
2022-11-22T12:39:18.981Z,4.57
2022-11-22T12:42:30.299Z,4.67
2022-11-22T12:45:38.218Z,3.80
2022-11-22T12:48:49.055Z,3.93
2022-11-22T12:51:58.021Z,3.97
2022-11-22T12:55:06.383Z,3.10
2022-11-22T12:58:21.771Z,3.97
2022-11-22T13:01:30.469Z,3.60
2022-11-22T13:04:45.650Z,3.30
2022-11-22T13:07:57.985Z,3.00
2022-11-22T13:11:08.381Z,3.30
2022-11-22T13:14:20.828Z,3.90
2022-11-22T13:17:27.921Z,3.00
2022-11-22T13:20:42.975Z,3.30
2022-11-22T13:24:06.880Z,4.20
2022-11-22T13:27:20.622Z,4.10
2022-11-22T13:30:26.660Z,3.97
2022-11-22T13:33:30.403Z,3.93
2022-11-22T13:36:43.751Z,3.80
2022-11-22T13:39:50.990Z,4.00
2022-11-22T13:43:31.828Z,5.47
2022-11-22T13:46:54.991Z,5.30
2022-11-22T13:49:58.651Z,6.40
2022-11-22T13:53:23.320Z,5.07
2022-11-22T13:57:00.508Z,5.67
2022-11-22T14:00:48.799Z,3.77
2022-11-22T14:03:52.680Z,3.00
2022-11-22T14:07:01.812Z,3.40
2022-11-22T14:10:25.761Z,3.70
2022-11-22T14:13:47.920Z,4.00
2022-11-22T14:17:06.325Z,3.67
2022-11-22T14:20:24.270Z,3.97
2022-11-22T14:23:37.780Z,4.30
2022-11-22T14:26:51.174Z,4.80
2022-11-22T14:30:21.027Z,4.10
2022-11-22T14:33:26.282Z,4.47
2022-11-22T14:36:30.050Z,4.50
2022-11-22T14:40:02.190Z,3.60
2022-11-22T14:43:36.280Z,3.83
2022-11-22T14:46:53.268Z,4.23
2022-11-22T14:49:58.711Z,4.60
2022-11-22T14:53:12.850Z,3.80
2022-11-22T14:56:19.160Z,4.50
2022-11-22T14:59:51.140Z,7.20
2022-11-22T15:03:17.851Z,3.53
2022-11-22T15:09:14.762Z,3.93
2022-11-22T15:10:18.523Z,4.13
2022-11-22T15:13:46.891Z,4.13
2022-11-22T15:58:49.211Z,6.60
2022-11-22T16:01:55.387Z,7.47
2022-11-22T16:06:10.274Z,7.07
2022-11-22T16:08:29.408Z,16.87
2022-11-22T16:11:40.301Z,11.00
2022-11-22T16:14:51.051Z,12.97
2022-11-22T16:17:59.646Z,12.03
2022-11-22T16:21:07.422Z,18.00
2022-11-22T16:24:18.186Z,8.40
2022-11-22T16:27:23.271Z,8.93
2022-11-22T16:30:26.902Z,8.50
2022-11-22T16:33:31.522Z,9.83
2022-11-22T16:36:35.250Z,8.80
2022-11-22T16:39:39.080Z,8.57
2022-11-22T16:42:45.274Z,10.67
2022-11-22T16:45:49.659Z,10.70
2022-11-22T16:48:53.832Z,17.63
2022-11-22T16:51:57.581Z,16.17
2022-11-22T16:55:01.590Z,10.43
2022-11-22T16:58:14.840Z,7.60
2022-11-22T17:01:20.800Z,7.30
2022-11-22T17:04:27.231Z,8.80
2022-11-22T17:07:31.021Z,9.97
2022-11-22T17:10:34.661Z,10.17
2022-11-22T17:13:39.809Z,7.13
2022-11-22T17:16:44.071Z,6.33
2022-11-22T17:19:54.888Z,14.90
2022-11-22T17:22:58.592Z,13.77
2022-11-22T17:26:02.270Z,8.10
2022-11-22T17:29:11.118Z,14.20
2022-11-22T17:32:22.350Z,9.90
2022-11-22T17:35:26.280Z,13.07
2022-11-22T17:38:30.069Z,11.73
2022-11-22T17:41:34.553Z,11.03
2022-11-22T17:44:39.650Z,8.03
2022-11-22T17:47:43.420Z,13.40
2022-11-22T17:50:47.079Z,15.77
2022-11-22T17:53:51.230Z,10.07
2022-11-22T17:56:54.940Z,8.70
2022-11-22T18:00:01.344Z,17.43
2022-11-22T18:03:08.130Z,9.97
2022-11-22T18:06:13.189Z,24.37
2022-11-22T18:09:16.940Z,12.63
2022-11-22T18:12:20.640Z,10.03
2022-11-22T18:15:25.790Z,8.90
2022-11-22T18:18:55.276Z,8.33
2022-11-22T18:21:53.880Z,10.07
2022-11-22T18:24:57.640Z,8.97
2022-11-22T18:28:01.370Z,8.57
2022-11-22T18:31:07.309Z,8.00
2022-11-22T18:34:10.900Z,7.90
2022-11-22T18:37:15.205Z,9.37
2022-11-22T18:40:19.281Z,14.03
2022-11-22T18:43:23.100Z,13.00
2022-11-22T18:46:28.611Z,10.90
2022-11-22T18:49:32.818Z,12.03
2022-11-22T18:52:38.279Z,18.73
2022-11-22T18:55:42.000Z,19.30
2022-11-22T18:58:45.807Z,6.70
2022-11-22T19:01:50.900Z,7.07
2022-11-22T19:04:56.070Z,16.67
2022-11-22T19:07:59.739Z,8.97
2022-11-22T19:11:03.429Z,31.33
2022-11-22T19:14:07.260Z,34.07
2022-11-22T19:17:12.520Z,16.73
2022-11-22T19:20:39.144Z,17.30
2022-11-22T19:23:41.222Z,15.73
2022-11-22T19:26:44.960Z,11.10
2022-11-22T19:29:48.604Z,10.80
2022-11-22T19:32:53.890Z,10.80
2022-11-22T19:35:59.366Z,19.53
2022-11-22T19:39:04.992Z,17.07
2022-11-22T19:42:08.900Z,18.97
2022-11-22T19:45:12.920Z,15.80
2022-11-22T19:48:19.943Z,24.13
2022-11-22T19:51:24.800Z,23.10
2022-11-22T19:54:28.563Z,22.53
2022-11-22T19:57:32.381Z,29.00
2022-11-22T20:00:36.337Z,24.03
2022-11-22T20:03:43.642Z,29.53
2022-11-22T20:06:50.072Z,47.10
2022-11-22T20:09:54.161Z,43.83
2022-11-22T20:12:58.341Z,38.43
2022-11-22T20:16:07.860Z,34.90
2022-11-22T20:19:12.970Z,26.97
2022-11-22T20:22:16.660Z,18.03
2022-11-22T20:25:20.457Z,10.90
2022-11-22T20:28:24.291Z,10.97
2022-11-22T20:31:29.221Z,9.87
2022-11-22T20:34:35.081Z,11.10
2022-11-22T20:37:38.861Z,9.37
2022-11-22T20:40:42.651Z,8.37
2022-11-22T20:43:47.261Z,8.33
2022-11-22T20:46:51.192Z,7.53
2022-11-22T20:49:56.330Z,8.10
2022-11-22T20:52:59.972Z,8.23
2022-11-22T20:56:04.391Z,8.13
2022-11-22T20:59:10.501Z,8.33
2022-11-22T21:02:14.152Z,9.17
2022-11-22T21:05:19.510Z,8.30
2022-11-22T21:08:24.512Z,8.00
2022-11-22T21:11:29.681Z,9.17
2022-11-22T21:14:33.630Z,9.30
2022-11-22T21:17:50.156Z,9.10
2022-11-22T21:21:08.460Z,9.30
2022-11-22T21:24:13.361Z,10.47
2022-11-22T21:27:17.211Z,9.60
2022-11-22T21:30:21.440Z,12.73
2022-11-22T21:33:25.840Z,15.80
2022-11-22T21:36:30.930Z,13.83
2022-11-22T21:39:34.839Z,13.23
2022-11-22T21:42:38.839Z,14.57
2022-11-22T21:45:42.499Z,15.77
2022-11-22T21:48:46.221Z,12.33
2022-11-22T21:51:51.339Z,12.00
2022-11-22T21:54:55.118Z,11.23
2022-11-22T21:57:58.828Z,10.93
2022-11-22T22:01:09.564Z,11.30
2022-11-22T22:04:16.610Z,10.70
2022-11-22T22:07:44.587Z,10.50
2022-11-22T22:10:45.398Z,9.67
2022-11-22T22:13:53.787Z,9.70
2022-11-22T22:16:57.588Z,9.03
2022-11-22T22:20:01.582Z,10.87
2022-11-22T22:23:06.846Z,9.17
2022-11-22T22:26:12.580Z,9.63
2022-11-22T22:29:16.189Z,9.93
2022-11-22T22:32:19.919Z,9.90
2022-11-22T22:35:23.807Z,10.07
2022-11-22T22:38:30.418Z,9.93
2022-11-22T22:41:34.128Z,11.97
2022-11-22T22:44:37.876Z,12.70
2022-11-22T22:47:41.729Z,7.90
2022-11-22T22:50:45.484Z,7.33
2022-11-22T22:53:51.398Z,8.47
2022-11-22T22:56:55.068Z,8.50
2022-11-22T22:59:59.029Z,6.60
2022-11-22T23:03:03.149Z,6.57
2022-11-22T23:06:09.478Z,6.60
2022-11-22T23:09:15.811Z,6.83
2022-11-22T23:12:19.558Z,8.77
2022-11-22T23:15:43.813Z,7.67
2022-11-22T23:18:47.178Z,7.77
2022-11-22T23:21:50.988Z,7.60
2022-11-22T23:24:56.246Z,7.33
2022-11-22T23:28:00.709Z,7.13
2022-11-22T23:31:09.088Z,9.97
2022-11-22T23:34:13.189Z,10.70
2022-11-22T23:37:16.877Z,8.70
2022-11-22T23:40:22.008Z,6.87
2022-11-22T23:43:26.027Z,6.13
2022-11-22T23:46:30.853Z,6.40
2022-11-22T23:49:34.680Z,6.07
2022-11-22T23:52:38.466Z,6.13
2022-11-22T23:55:43.827Z,6.17
2022-11-22T23:58:47.480Z,6.80
